Time;durP1;ratioP1;P1;durP2;ratioP2;P2;SDS_P1;SDS_P2;PMS_P1;PMS_P2;Temp;Humidity;BMP_temperature;BMP_pressure;BME280_temperature;BME280_humidity;BME280_pressure;Samples;Min_cycle;Max_cycle;Signal;HPM_P1;HPM_P2
2021/05/20 00:00:10;;;;;;;6.17;5.15;;;;;;;10.74;90.24;96871.59;1743088;82;21043;-71
2021/05/20 00:02:38;;;;;;;5.28;4.78;;;;;;;10.69;90.92;96877.13;1743512;81;21554;-71
2021/05/20 00:05:06;;;;;;;8.65;4.90;;;;;;;10.68;90.20;96874.93;1743267;82;21031;-70
2021/05/20 00:07:34;;;;;;;6.92;4.97;;;;;;;10.67;89.80;96876.36;1743096;82;21034;-71
2021/05/20 00:10:00;;;;;;;5.70;5.00;;;;;;;10.61;89.62;96872.66;1743182;82;21095;-70
2021/05/20 00:12:27;;;;;;;5.60;4.45;;;;;;;10.56;90.15;96875.05;1731597;81;21485;-70
2021/05/20 00:14:53;;;;;;;5.17;4.47;;;;;;;10.57;90.97;96879.89;1712290;82;21153;-71
2021/05/20 00:17:20;;;;;;;6.08;4.90;;;;;;;10.54;90.38;96884.88;1743207;82;21066;-71
2021/05/20 00:19:46;;;;;;;6.40;4.45;;;;;;;10.49;90.57;96875.42;1740218;81;21548;-71
2021/05/20 00:22:13;;;;;;;6.45;4.75;;;;;;;10.45;90.84;96874.71;1733618;83;21003;-70
2021/05/20 00:24:40;;;;;;;5.75;4.75;;;;;;;10.40;92.52;96871.39;1733588;83;21607;-70
2021/05/20 00:27:06;;;;;;;5.83;4.15;;;;;;;10.37;91.45;96882.11;1733523;83;21028;-70
2021/05/20 00:29:33;;;;;;;6.53;5.12;;;;;;;10.33;91.33;96884.55;1742815;81;21038;-70
2021/05/20 00:31:59;;;;;;;6.00;4.05;;;;;;;10.32;91.24;96879.70;1774223;80;21512;-70
2021/05/20 00:34:26;;;;;;;5.03;4.53;;;;;;;10.31;90.83;96883.28;1774198;81;21110;-70
2021/05/20 00:36:52;;;;;;;5.70;4.25;;;;;;;10.33;90.99;96879.25;1756117;81;21047;-70
2021/05/20 00:39:19;;;;;;;5.62;3.80;;;;;;;10.28;92.86;96880.31;1736253;81;21003;-70
2021/05/20 00:41:45;;;;;;;6.60;4.17;;;;;;;10.25;91.78;96879.57;1735912;81;21508;-70
2021/05/20 00:44:11;;;;;;;6.67;4.45;;;;;;;10.25;91.32;96888.84;1740340;82;21042;-70
2021/05/20 00:46:38;;;;;;;6.25;4.30;;;;;;;10.26;91.00;96892.75;1743996;82;21011;-70
2021/05/20 00:49:13;;;;;;;5.87;4.67;;;;;;;10.26;91.04;96883.96;1753907;81;20991;-70
2021/05/20 00:51:33;;;;;;;5.53;4.10;;;;;;;10.28;90.69;96888.70;1770844;81;21031;-71
2021/05/20 00:53:59;;;;;;;5.30;4.25;;;;;;;10.28;91.10;96892.23;1708494;84;21043;-71
2021/05/20 00:56:26;;;;;;;6.85;4.15;;;;;;;10.29;91.00;96886.00;1774506;80;21388;-70
2021/05/20 00:58:53;;;;;;;5.53;3.98;;;;;;;10.30;90.96;96888.19;1766673;81;21023;-71
2021/05/20 01:01:19;;;;;;;5.85;4.05;;;;;;;10.32;91.21;96894.27;1738697;82;21483;-70
2021/05/20 01:03:46;;;;;;;4.87;4.08;;;;;;;10.36;90.84;96891.00;1723603;82;21035;-71
2021/05/20 01:06:12;;;;;;;5.10;4.33;;;;;;;10.38;90.69;96895.78;1743478;82;21095;-70
2021/05/20 01:08:39;;;;;;;4.70;4.00;;;;;;;10.40;91.34;96891.25;1719561;81;21492;-70
2021/05/20 01:11:05;;;;;;;5.58;3.95;;;;;;;10.43;91.39;96889.34;1713870;83;21039;-70
2021/05/20 01:13:32;;;;;;;6.00;4.22;;;;;;;10.42;92.21;96884.95;1713802;84;21074;-70
2021/05/20 01:15:59;;;;;;;3.92;3.35;;;;;;;10.42;92.81;96874.36;1713684;84;21097;-70
2021/05/20 01:18:25;;;;;;;4.10;3.35;;;;;;;10.48;92.29;96871.92;1757111;81;20996;-70
2021/05/20 01:20:52;;;;;;;5.50;3.45;;;;;;;10.55;92.95;96868.53;1774553;81;21043;-71
2021/05/20 01:23:20;;;;;;;7.67;4.42;;;;;;;10.56;93.16;96867.59;1774384;81;21176;-71
2021/05/20 01:25:50;;;;;;;7.03;3.98;;;;;;;10.62;92.42;96863.77;1773447;81;21015;-71
2021/05/20 01:28:25;;;;;;;5.20;3.85;;;;;;;10.63;92.28;96855.75;1737962;81;21019;-71
2021/05/20 01:30:51;;;;;;;6.65;3.45;;;;;;;10.69;92.13;96862.09;1708539;84;21048;-71
2021/05/20 01:33:18;;;;;;;5.15;3.62;;;;;;;10.76;92.18;96860.47;1712276;84;21505;-71
2021/05/20 01:35:46;;;;;;;4.42;3.80;;;;;;;10.82;92.20;96847.78;1712267;83;21694;-71
2021/05/20 01:41:06;;;;;;;6.62;4.30;;;;;;;10.88;92.06;96859.85;1774582;81;21034;-71
2021/05/20 01:43:34;;;;;;;4.37;3.50;;;;;;;10.91;91.90;96854.86;1774485;80;21468;-71
2021/05/20 01:46:01;;;;;;;5.05;3.67;;;;;;;10.89;91.64;96858.94;1774353;81;21519;-72
2021/05/20 01:48:38;;;;;;;4.62;3.30;;;;;;;10.87;91.71;96846.22;1746150;81;21011;-71
2021/05/20 01:51:10;;;;;;;5.03;3.77;;;;;;;10.85;91.61;96849.42;1741449;81;21007;-71
2021/05/20 01:53:41;;;;;;;6.28;3.95;;;;;;;10.79;91.50;96849.25;1730743;82;21059;-72
2021/05/20 01:56:09;;;;;;;7.15;3.58;;;;;;;10.80;91.71;96848.30;1721515;82;21484;-70
2021/05/20 01:58:37;;;;;;;6.20;4.37;;;;;;;10.79;91.75;96843.94;1758077;81;21639;-70
2021/05/20 02:01:05;;;;;;;5.78;4.47;;;;;;;10.79;91.50;96844.40;1774517;81;21023;-70
2021/05/20 02:03:33;;;;;;;5.28;4.25;;;;;;;10.77;91.76;96843.17;1774531;81;21031;-71
2021/05/20 02:06:02;;;;;;;5.17;4.33;;;;;;;10.75;91.39;96841.53;1774285;81;20996;-71
2021/05/20 02:08:32;;;;;;;6.03;5.15;;;;;;;10.64;91.48;96834.97;1746908;81;21051;-70
2021/05/20 02:11:00;;;;;;;7.28;4.50;;;;;;;10.61;91.57;96840.41;1736465;82;21086;-71
2021/05/20 02:13:27;;;;;;;6.83;4.80;;;;;;;10.54;92.20;96832.34;1741563;82;21058;-71
2021/05/20 02:15:54;;;;;;;5.78;4.90;;;;;;;10.48;92.27;96830.87;1742063;82;21090;-70
2021/05/20 02:18:21;;;;;;;4.87;4.37;;;;;;;10.47;91.54;96834.91;1737521;80;21033;-70
2021/05/20 02:20:47;;;;;;;4.83;4.30;;;;;;;10.45;91.37;96824.84;1735760;82;21495;-70
2021/05/20 02:23:16;;;;;;;5.72;5.12;;;;;;;10.42;91.63;96828.45;1740483;82;21027;-70
2021/05/20 02:25:44;;;;;;;5.65;4.35;;;;;;;10.40;92.12;96829.02;1753845;81;21110;-71
2021/05/20 02:28:10;;;;;;;5.70;5.10;;;;;;;10.39;91.45;96825.98;1748049;80;21122;-71
2021/05/20 02:30:40;;;;;;;5.28;4.37;;;;;;;10.35;91.83;96822.63;1712728;82;21022;-71
2021/05/20 02:33:06;;;;;;;4.60;4.10;;;;;;;10.33;91.69;96816.52;1741646;82;21075;-71
2021/05/20 02:35:33;;;;;;;7.30;4.97;;;;;;;10.31;92.04;96822.37;1742414;80;21014;-71
2021/05/20 02:37:59;;;;;;;6.72;5.05;;;;;;;10.30;91.91;96818.86;1741749;82;21031;-71
2021/05/20 02:40:26;;;;;;;7.25;4.95;;;;;;;10.29;91.89;96812.30;1741739;82;21047;-71
2021/05/20 02:42:52;;;;;;;6.12;4.72;;;;;;;10.28;91.85;96821.19;1727422;82;21507;-70
2021/05/20 02:45:25;;;;;;;5.83;4.47;;;;;;;10.25;93.02;96822.19;1739279;82;21540;-70
2021/05/20 02:47:54;;;;;;;5.55;4.03;;;;;;;10.22;92.05;96819.67;1752010;80;21074;-71
2021/05/20 02:50:24;;;;;;;6.65;4.97;;;;;;;10.21;92.70;96821.09;1741259;82;21031;-71
2021/05/20 02:52:51;;;;;;;9.53;6.12;;;;;;;10.20;92.74;96824.65;1714869;80;21511;-71
2021/05/20 02:55:23;;;;;;;9.55;5.50;;;;;;;10.17;93.13;96817.71;1782791;80;21553;-71
2021/05/20 02:57:54;;;;;;;6.95;6.00;;;;;;;10.14;94.56;96820.52;1782302;80;21464;-71
2021/05/20 03:00:21;;;;;;;7.12;5.17;;;;;;;10.15;92.87;96817.80;1782879;80;21079;-71
2021/05/20 03:02:49;;;;;;;5.90;5.30;;;;;;;10.14;94.64;96820.03;1781802;80;21050;-71
2021/05/20 03:05:18;;;;;;;5.85;5.25;;;;;;;10.11;95.95;96818.00;1741674;82;21488;-71
2021/05/20 03:07:46;;;;;;;7.67;5.08;;;;;;;10.14;94.47;96820.03;1738973;82;21037;-71
2021/05/20 03:10:14;;;;;;;5.90;4.65;;;;;;;10.14;96.13;96829.78;1736789;82;21042;-71
2021/05/20 03:12:41;;;;;;;6.25;5.05;;;;;;;10.16;95.75;96830.56;1743564;82;21518;-71
2021/05/20 03:15:09;;;;;;;6.67;5.20;;;;;;;10.16;96.60;96834.53;1773006;81;21055;-71
2021/05/20 03:17:37;;;;;;;5.67;4.50;;;;;;;10.17;96.01;96829.17;1774436;80;21118;-71
2021/05/20 03:20:06;;;;;;;6.87;4.37;;;;;;;10.22;95.87;96831.59;1774325;81;21488;-71
2021/05/20 03:22:33;;;;;;;6.70;4.72;;;;;;;10.26;96.61;96834.97;1708284;84;21166;-71
2021/05/20 03:24:59;;;;;;;5.78;4.70;;;;;;;10.30;95.40;96828.61;1772463;80;21488;-71
2021/05/20 03:27:25;;;;;;;5.60;4.58;;;;;;;10.35;96.63;96829.70;1774071;80;21053;-71
2021/05/20 03:29:52;;;;;;;7.08;4.33;;;;;;;10.38;95.67;96824.27;1774373;80;21078;-71
2021/05/20 03:32:19;;;;;;;7.70;4.92;;;;;;;10.44;95.00;96829.30;1684462;84;21142;-72
2021/05/20 03:34:45;;;;;;;5.33;4.70;;;;;;;10.51;94.85;96833.35;1740338;81;21064;-71
2021/05/20 03:37:11;;;;;;;5.22;4.53;;;;;;;10.55;94.52;96837.58;1742929;82;21480;-71
2021/05/20 03:39:38;;;;;;;7.33;3.95;;;;;;;10.59;94.78;96835.63;1743376;82;21003;-71
2021/05/20 03:42:05;;;;;;;9.23;4.40;;;;;;;10.64;94.26;96834.09;1731974;82;21038;-71
2021/05/20 03:44:32;;;;;;;5.28;4.22;;;;;;;10.66;94.17;96835.73;1686585;84;21027;-71
2021/05/20 03:47:00;;;;;;;5.33;3.65;;;;;;;10.68;94.37;96841.81;1745668;82;21058;-71
2021/05/20 03:49:27;;;;;;;3.55;3.17;;;;;;;10.72;94.41;96842.55;1751187;82;21011;-71
2021/05/20 03:51:53;;;;;;;5.90;3.52;;;;;;;10.76;94.36;96849.87;1751441;82;21185;-71
2021/05/20 03:54:20;;;;;;;4.28;3.67;;;;;;;10.77;94.19;96853.77;1763068;81;21114;-71
2021/05/20 03:56:47;;;;;;;4.33;3.37;;;;;;;10.76;93.71;96849.38;1693819;84;21508;-71
2021/05/20 03:59:13;;;;;;;4.95;3.72;;;;;;;10.73;93.74;96847.36;1735697;82;21039;-71
2021/05/20 04:01:40;;;;;;;3.70;3.40;;;;;;;10.72;93.59;96844.32;1716930;82;21094;-71
2021/05/20 04:04:07;;;;;;;6.15;4.42;;;;;;;10.71;93.72;96846.10;1713617;83;21063;-71
2021/05/20 04:06:34;;;;;;;5.20;4.50;;;;;;;10.69;93.55;96854.60;1758108;81;21022;-71
2021/05/20 04:09:02;;;;;;;9.93;4.58;;;;;;;10.66;93.47;96858.72;1774355;81;21098;-71
2021/05/20 04:11:29;;;;;;;6.08;5.33;;;;;;;10.65;93.46;96862.30;1774277;81;21032;-71
2021/05/20 04:13:56;;;;;;;8.40;5.58;;;;;;;10.63;93.34;96858.88;1774269;80;21066;-71
2021/05/20 04:16:25;;;;;;;9.48;5.55;;;;;;;10.61;93.57;96858.95;1774329;81;21559;-71
2021/05/20 04:18:52;;;;;;;9.13;6.37;;;;;;;10.61;93.42;96861.60;1772350;81;21543;-71
2021/05/20 04:21:19;;;;;;;6.25;5.22;;;;;;;10.58;94.15;96867.03;1731240;82;21087;-71
2021/05/20 04:23:47;;;;;;;6.92;5.53;;;;;;;10.56;93.26;96865.78;1728976;82;21015;-71
2021/05/20 04:26:19;;;;;;;9.15;5.22;;;;;;;10.53;93.47;96863.75;1712267;84;21059;-71
2021/05/20 04:28:47;;;;;;;7.05;5.97;;;;;;;10.51;93.56;96865.14;1712257;83;21133;-71
2021/05/20 04:31:14;;;;;;;7.53;5.37;;;;;;;10.51;94.28;96869.60;1712322;84;21043;-71
2021/05/20 04:33:43;;;;;;;5.95;5.35;;;;;;;10.50;94.15;96861.27;1712355;83;21583;-71
2021/05/20 04:36:11;;;;;;;5.70;5.00;;;;;;;10.48;93.54;96864.44;1724870;81;21035;-71
2021/05/20 04:38:37;;;;;;;7.78;5.50;;;;;;;10.45;93.35;96865.44;1733802;83;21134;-71
2021/05/20 04:41:06;;;;;;;6.53;5.85;;;;;;;10.42;93.81;96864.22;1733705;82;21035;-71
2021/05/20 04:43:33;;;;;;;6.55;5.50;;;;;;;10.43;93.41;96865.51;1733770;82;21079;-71
2021/05/20 04:45:59;;;;;;;8.13;5.17;;;;;;;10.39;94.33;96865.22;1733973;82;21019;-71
2021/05/20 04:48:26;;;;;;;6.45;5.45;;;;;;;10.37;93.99;96864.90;1730869;82;21532;-72
2021/05/20 04:50:55;;;;;;;5.87;4.65;;;;;;;10.34;95.41;96866.39;1717038;82;21529;-71
2021/05/20 04:53:24;;;;;;;5.72;5.12;;;;;;;10.33;93.83;96860.70;1715993;81;21043;-70
2021/05/20 04:55:52;;;;;;;7.30;4.70;;;;;;;10.33;94.34;96858.06;1712922;83;21035;-71
2021/05/20 04:58:18;;;;;;;8.28;5.40;;;;;;;10.32;94.85;96864.26;1733660;83;21603;-71
2021/05/20 05:00:45;;;;;;;9.20;4.78;;;;;;;10.30;94.39;96853.77;1733589;83;21062;-70
2021/05/20 05:03:11;;;;;;;4.95;4.45;;;;;;;10.34;93.94;96855.31;1733747;83;21066;-70
2021/05/20 05:05:38;;;;;;;6.55;5.65;;;;;;;10.35;94.49;96857.05;1733712;82;21543;-70
2021/05/20 05:08:04;;;;;;;6.45;4.70;;;;;;;10.36;95.68;96861.41;1733623;82;21019;-71
2021/05/20 05:10:31;;;;;;;6.37;4.62;;;;;;;10.37;96.62;96856.50;1762472;81;21067;-71
2021/05/20 05:12:58;;;;;;;6.60;4.65;;;;;;;10.41;94.85;96855.43;1737146;81;21055;-71
2021/05/20 05:15:25;;;;;;;4.87;4.10;;;;;;;10.47;94.94;96857.42;1728751;81;21104;-71
2021/05/20 05:17:51;;;;;;;6.53;4.30;;;;;;;10.52;95.08;96860.72;1752659;81;21038;-71
2021/05/20 05:20:19;;;;;;;4.55;4.10;;;;;;;10.58;95.18;96859.09;1751678;82;21575;-71
2021/05/20 05:22:46;;;;;;;6.78;4.05;;;;;;;10.60;94.87;96855.92;1751787;80;21102;-71
2021/05/20 05:25:13;;;;;;;4.22;3.70;;;;;;;10.62;94.60;96857.14;1771572;80;21556;-70
2021/05/20 05:27:39;;;;;;;5.10;3.95;;;;;;;10.66;94.20;96852.09;1740989;81;21094;-71
2021/05/20 05:30:07;;;;;;;3.83;3.42;;;;;;;10.66;93.21;96854.73;1710499;84;21070;-71
2021/05/20 05:32:34;;;;;;;5.70;4.03;;;;;;;10.64;93.63;96856.62;1743376;82;21051;-71
2021/05/20 05:35:00;;;;;;;6.47;4.00;;;;;;;10.76;94.20;96854.69;1736347;81;21003;-71
2021/05/20 05:37:27;;;;;;;4.75;3.50;;;;;;;10.83;93.44;96851.27;1731062;82;20983;-71
2021/05/20 05:39:53;;;;;;;4.78;3.98;;;;;;;10.93;93.35;96862.30;1744650;81;21406;-71
2021/05/20 05:42:20;;;;;;;5.37;3.55;;;;;;;10.93;92.74;96860.48;1748294;81;21016;-71
2021/05/20 05:44:46;;;;;;;4.42;3.40;;;;;;;11.00;92.79;96858.39;1745904;81;21487;-71
2021/05/20 05:47:13;;;;;;;4.78;3.98;;;;;;;11.00;91.80;96860.20;1676389;85;21060;-71
2021/05/20 05:49:48;;;;;;;5.03;3.40;;;;;;;11.00;92.26;96853.58;1740305;81;21023;-71
2021/05/20 05:52:20;;;;;;;7.45;4.15;;;;;;;11.03;92.02;96862.22;1743293;82;21024;-71
2021/05/20 05:54:46;;;;;;;4.78;3.60;;;;;;;11.00;90.95;96865.50;1737480;81;21183;-71
2021/05/20 05:57:12;;;;;;;4.28;3.85;;;;;;;10.99;91.61;96861.98;1733594;83;21012;-72
2021/05/20 05:59:39;;;;;;;5.95;3.50;;;;;;;11.03;92.19;96862.22;1725717;82;21074;-71
2021/05/20 06:02:05;;;;;;;5.33;4.00;;;;;;;11.01;91.48;96864.56;1735695;82;21067;-72
2021/05/20 06:04:33;;;;;;;4.00;3.62;;;;;;;10.98;91.88;96858.95;1758331;81;21015;-72
2021/05/20 06:07:00;;;;;;;3.72;3.37;;;;;;;11.00;92.69;96853.58;1706543;84;21063;-72
2021/05/20 06:09:28;;;;;;;18.48;13.65;;;;;;;10.98;91.65;96852.31;1747275;81;21089;-71
2021/05/20 06:11:59;;;;;;;6.30;4.92;;;;;;;11.00;91.57;96853.58;1758563;81;21047;-71
2021/05/20 06:14:25;;;;;;;6.20;4.78;;;;;;;11.02;91.11;96858.31;1768676;80;21504;-71
2021/05/20 06:16:51;;;;;;;6.90;4.95;;;;;;;10.98;91.42;96865.58;1782608;80;21054;-72
2021/05/20 06:19:18;;;;;;;7.67;5.10;;;;;;;10.94;92.48;96856.92;1754658;80;21093;-72
2021/05/20 06:21:44;;;;;;;7.28;5.45;;;;;;;10.92;91.53;96864.56;1741457;82;21542;-72
2021/05/20 06:24:11;;;;;;;6.37;5.70;;;;;;;10.84;93.57;96868.91;1753600;82;21003;-73
2021/05/20 06:26:38;;;;;;;6.75;6.05;;;;;;;10.81;92.70;96864.59;1749179;80;21051;-72
2021/05/20 06:29:06;;;;;;;7.67;5.90;;;;;;;10.79;92.83;96865.14;1750016;82;21010;-72
2021/05/20 06:31:33;;;;;;;8.88;7.05;;;;;;;10.81;92.90;96863.27;1752533;82;21050;-72
2021/05/20 06:34:00;;;;;;;10.05;7.08;;;;;;;10.82;92.91;96866.78;1723636;82;21030;-72
2021/05/20 06:36:26;;;;;;;7.70;6.58;;;;;;;10.85;92.80;96864.45;1724103;83;21026;-72
2021/05/20 06:38:53;;;;;;;10.88;7.75;;;;;;;10.87;93.18;96864.77;1724020;83;21097;-72
2021/05/20 06:41:22;;;;;;;6.75;6.03;;;;;;;10.89;92.63;96861.59;1724045;83;21575;-72
2021/05/20 06:43:50;;;;;;;8.75;6.65;;;;;;;10.90;92.57;96865.95;1733016;80;21128;-72
2021/05/20 06:46:17;;;;;;;7.62;6.20;;;;;;;10.93;92.50;96864.95;1745138;81;21020;-72
2021/05/20 06:48:44;;;;;;;7.10;6.15;;;;;;;10.94;93.44;96868.85;1723033;81;21122;-72
2021/05/20 06:51:10;;;;;;;8.75;6.15;;;;;;;10.96;93.07;96864.31;1722351;82;21086;-71
2021/05/20 06:53:38;;;;;;;9.00;5.50;;;;;;;11.01;93.18;96869.86;1748237;80;21034;-72
2021/05/20 06:56:08;;;;;;;6.42;5.12;;;;;;;11.02;93.55;96872.45;1743561;81;21119;-73
2021/05/20 07:01:14;;;;;;;7.95;4.62;;;;;;;11.07;92.61;96865.12;1668757;82;21019;-75
2021/05/20 07:03:42;;;;;;;6.40;4.15;;;;;;;11.09;92.87;96869.86;1752580;80;21147;-74
2021/05/20 07:06:11;;;;;;;6.12;4.10;;;;;;;11.13;92.77;96871.89;1744319;82;21019;-75
2021/05/20 07:08:40;;;;;;;7.30;4.00;;;;;;;11.14;92.72;96869.66;1742501;81;21030;-75
2021/05/20 07:11:07;;;;;;;3.92;3.47;;;;;;;11.16;92.84;96877.05;1753745;82;21031;-74
2021/05/20 07:13:34;;;;;;;15.80;10.63;;;;;;;11.20;92.78;96885.70;1752848;80;21093;-77
2021/05/20 07:16:00;;;;;;;4.40;4.00;;;;;;;11.20;93.40;96883.92;1723191;82;21554;-75
2021/05/20 07:18:27;;;;;;;5.65;4.25;;;;;;;11.22;93.10;96883.85;1739565;81;21054;-73
2021/05/20 07:20:53;;;;;;;5.33;4.00;;;;;;;11.25;93.14;96885.48;1760028;81;21042;-76
2021/05/20 07:23:20;;;;;;;4.97;4.25;;;;;;;11.29;93.19;96889.71;1748965;80;21152;-78
2021/05/20 07:25:51;;;;;;;5.62;4.17;;;;;;;11.30;93.46;96887.44;1740972;81;21208;-79
2021/05/20 07:28:18;;;;;;;7.25;4.90;;;;;;;11.31;93.41;96891.80;1749203;81;21010;-77
2021/05/20 07:30:44;;;;;;;5.60;4.40;;;;;;;11.30;93.34;96893.59;1735833;81;21546;-80
2021/05/20 07:33:12;;;;;;;5.40;4.47;;;;;;;11.32;93.32;96896.16;1732973;82;21081;-78
2021/05/20 07:35:39;;;;;;;7.90;5.30;;;;;;;11.30;93.20;96893.59;1758489;81;21022;-80
2021/05/20 07:38:06;;;;;;;6.12;5.50;;;;;;;11.31;93.19;96894.00;1759073;81;21023;-80
2021/05/20 07:40:33;;;;;;;7.55;6.22;;;;;;;11.30;93.16;96898.89;1762348;81;21059;-74
2021/05/20 07:42:59;;;;;;;9.98;6.67;;;;;;;11.30;93.09;96899.37;1761616;80;21469;-76
2021/05/20 07:45:26;;;;;;;7.70;6.30;;;;;;;11.29;93.03;96902.97;1750621;81;21202;-76
2021/05/20 07:47:53;;;;;;;7.72;6.53;;;;;;;11.26;92.93;96898.68;1731938;81;21054;-76
2021/05/20 07:50:20;;;;;;;8.88;6.17;;;;;;;11.24;93.19;96908.48;1723326;83;21133;-75
2021/05/20 07:52:47;;;;;;;8.43;6.67;;;;;;;11.23;92.71;96900.15;1736422;80;21038;-74
2021/05/20 07:55:15;;;;;;;12.30;7.20;;;;;;;11.22;92.57;96901.09;1763083;81;21020;-75
2021/05/20 07:57:42;;;;;;;9.20;6.60;;;;;;;11.15;92.87;96897.88;1757585;81;21045;-75
2021/05/20 08:00:12;;;;;;;7.97;6.40;;;;;;;11.16;92.75;96900.91;1759144;80;21061;-74
2021/05/20 08:02:54;;;;;;;8.10;6.45;;;;;;;11.17;92.77;96899.98;1755384;81;21042;-73
2021/05/20 08:05:27;;;;;;;6.85;6.15;;;;;;;11.20;92.58;96900.29;1756347;81;21069;-75
2021/05/20 08:08:02;;;;;;;8.08;5.83;;;;;;;11.18;92.23;96908.80;1759911;81;21472;-74
2021/05/20 08:12:49;;;;;;;8.08;6.60;;;;;;;11.13;92.88;96902.38;1762809;81;21046;-74
2021/05/20 08:15:16;;;;;;;10.30;7.00;;;;;;;11.09;93.51;96906.15;1753221;80;21096;-75
2021/05/20 08:17:43;;;;;;;6.70;5.75;;;;;;;11.04;94.31;96907.68;1733816;81;21043;-74
2021/05/20 08:20:11;;;;;;;7.53;5.80;;;;;;;11.02;93.31;96908.69;1752899;81;21095;-74
2021/05/20 08:22:38;;;;;;;9.20;6.50;;;;;;;11.00;92.96;96909.25;1742548;82;21020;-78
2021/05/20 08:25:08;;;;;;;7.12;6.08;;;;;;;10.96;93.39;96909.39;1742584;82;21730;-78
2021/05/20 08:27:34;;;;;;;8.23;6.10;;;;;;;10.97;94.45;96915.56;1736685;81;21054;-77
2021/05/20 08:30:01;;;;;;;7.03;5.47;;;;;;;10.96;93.23;96916.02;1772252;81;21031;-77
2021/05/20 08:32:28;;;;;;;7.87;5.42;;;;;;;10.96;93.57;96920.45;1757287;81;21676;-75
2021/05/20 08:34:54;;;;;;;7.22;5.00;;;;;;;10.95;93.01;96923.58;1742944;82;21063;-75
2021/05/20 08:37:21;;;;;;;6.22;4.80;;;;;;;10.98;92.95;96920.38;1746484;81;21007;-75
2021/05/20 08:39:47;;;;;;;6.25;4.65;;;;;;;11.00;92.79;96925.16;1749081;81;20987;-76
2021/05/20 08:42:14;;;;;;;5.65;5.05;;;;;;;11.02;92.97;96928.58;1711268;84;21031;-76
2021/05/20 08:44:40;;;;;;;6.12;4.30;;;;;;;11.02;93.33;96925.47;1754343;81;21475;-72
2021/05/20 08:47:07;;;;;;;8.18;6.30;;;;;;;11.05;93.38;96926.62;1741770;81;21028;-72
2021/05/20 08:49:34;;;;;;;60.20;35.15;;;;;;;11.09;93.19;96931.34;1733419;81;21091;-72
2021/05/20 08:52:01;;;;;;;10.93;8.10;;;;;;;11.15;93.40;96938.11;1733065;83;21031;-72
2021/05/20 08:54:27;;;;;;;5.75;4.87;;;;;;;11.18;93.13;96932.19;1733217;83;21046;-74
2021/05/20 08:56:55;;;;;;;5.20;4.35;;;;;;;11.22;93.21;96936.41;1750749;81;21094;-74
2021/05/20 08:59:25;;;;;;;5.83;4.40;;;;;;;11.27;93.14;96934.00;1773965;81;21030;-75
2021/05/20 09:01:52;;;;;;;5.97;4.65;;;;;;;11.30;92.84;96937.34;1773805;81;21019;-75
2021/05/20 09:04:22;;;;;;;5.95;4.72;;;;;;;11.34;92.69;96932.29;1757275;81;21022;-77
2021/05/20 09:06:52;;;;;;;7.90;5.42;;;;;;;11.39;92.54;96936.05;1712406;82;21086;-73
2021/05/20 09:09:25;;;;;;;6.12;5.53;;;;;;;11.40;92.42;96935.11;1736660;82;21062;-76
2021/05/20 09:11:53;;;;;;;7.10;5.08;;;;;;;11.41;91.96;96931.52;1728768;81;21052;-75
2021/05/20 09:14:43;;;;;;;8.28;5.67;;;;;;;11.41;91.67;96942.13;1713942;82;21062;-75
2021/05/20 09:17:20;;;;;;;6.58;5.50;;;;;;;11.39;91.81;96948.45;1724721;80;21499;-75
2021/05/20 09:20:00;;;;;;;8.35;5.28;;;;;;;11.39;91.63;96947.13;1782378;80;21030;-74
2021/05/20 09:22:28;;;;;;;6.03;5.42;;;;;;;11.36;91.52;96953.44;1782178;80;21073;-75
2021/05/20 09:24:58;;;;;;;7.00;5.42;;;;;;;11.33;91.30;96955.78;1782680;80;21034;-75
2021/05/20 09:27:31;;;;;;;6.60;5.87;;;;;;;11.33;91.22;96958.43;1765722;80;21046;-76
2021/05/20 09:30:23;;;;;;;7.42;5.47;;;;;;;11.32;91.14;96952.74;1740050;80;21062;-76
2021/05/20 09:32:58;;;;;;;6.08;5.47;;;;;;;11.28;90.82;96961.78;1692502;84;21039;-75
2021/05/20 09:35:31;;;;;;;9.58;5.83;;;;;;;11.24;91.06;96962.86;1749603;82;21034;-74
2021/05/20 09:38:06;;;;;;;7.40;5.80;;;;;;;11.22;91.06;96969.56;1752959;80;21532;-74
2021/05/20 09:40:39;;;;;;;6.17;4.87;;;;;;;11.23;91.30;96963.80;1752604;82;21072;-74
2021/05/20 09:43:32;;;;;;;6.25;5.08;;;;;;;11.21;91.20;96965.20;1753448;82;21019;-73
2021/05/20 09:45:56;;;;;;;5.30;4.80;;;;;;;11.21;91.21;96965.20;1752820;82;21058;-74
2021/05/20 09:48:27;;;;;;;6.15;4.95;;;;;;;11.27;91.34;96980.41;1744810;80;21089;-76
2021/05/20 09:50:58;;;;;;;5.95;4.62;;;;;;;11.33;91.56;96977.00;1751690;81;21511;-74
2021/05/20 09:53:27;;;;;;;5.90;4.72;;;;;;;11.33;91.30;96976.13;1753399;81;21043;-75
2021/05/20 09:56:00;;;;;;;7.80;4.78;;;;;;;11.37;91.38;96979.52;1755767;81;21047;-75
2021/05/20 09:58:31;;;;;;;4.92;4.40;;;;;;;11.43;91.39;96979.20;1731364;81;21077;-75
2021/05/20 10:01:00;;;;;;;7.40;4.15;;;;;;;11.49;91.41;96973.58;1761005;80;21030;-77
2021/05/20 10:03:29;;;;;;;6.17;4.55;;;;;;;11.52;91.29;96977.42;1759784;81;21014;-79
2021/05/20 10:06:01;;;;;;;32.83;23.70;;;;;;;11.57;91.21;96978.50;1744114;81;21582;-79
2021/05/20 10:08:32;;;;;;;5.62;5.10;;;;;;;11.58;91.34;96975.78;1748542;80;20984;-79
2021/05/20 10:11:03;;;;;;;6.05;5.45;;;;;;;11.66;91.37;96986.01;1720140;83;21059;-76
2021/05/20 10:13:30;;;;;;;5.20;4.65;;;;;;;11.69;90.83;96980.55;1745749;81;21480;-82
2021/05/20 10:15:59;;;;;;;6.55;4.60;;;;;;;11.62;90.50;96982.66;1758621;81;21091;-76
2021/05/20 10:18:28;;;;;;;6.12;5.03;;;;;;;11.60;90.50;96986.32;1731757;82;21469;-78
2021/05/20 10:21:01;;;;;;;8.00;5.05;;;;;;;11.55;90.74;96988.34;1737527;82;21493;-77
2021/05/20 10:23:28;;;;;;;7.10;5.22;;;;;;;11.54;90.50;96991.45;1773907;80;21058;-76
2021/05/20 10:25:58;;;;;;;6.55;5.10;;;;;;;11.49;90.29;96983.74;1773927;81;22116;-78
2021/05/20 10:28:25;;;;;;;5.42;4.83;;;;;;;11.47;90.60;96994.88;1754975;81;21091;-75
2021/05/20 10:30:54;;;;;;;5.87;4.85;;;;;;;11.44;90.08;96991.07;1748749;81;21063;-76
2021/05/20 10:33:28;;;;;;;5.70;4.50;;;;;;;11.37;89.86;96994.94;1678723;85;21031;-76
2021/05/20 10:35:57;;;;;;;5.10;3.77;;;;;;;11.29;89.96;97001.95;1735741;81;21022;-76
2021/05/20 10:38:35;;;;;;;5.35;4.30;;;;;;;11.22;89.59;96996.08;1710763;84;21075;-76
2021/05/20 10:41:22;;;;;;;6.33;4.35;;;;;;;11.17;89.57;96995.93;1746571;81;21015;-77
2021/05/20 10:43:53;;;;;;;5.10;3.55;;;;;;;11.14;90.04;97011.52;1717931;82;21031;-74
2021/05/20 10:46:20;;;;;;;4.70;3.50;;;;;;;11.14;90.16;97011.97;1740079;82;21023;-74
2021/05/20 10:48:57;;;;;;;5.85;3.80;;;;;;;11.16;90.01;97014.95;1742928;82;21567;-74
2021/05/20 10:51:37;;;;;;;7.33;4.20;;;;;;;11.18;90.06;97018.38;1749574;81;21035;-72
2021/05/20 10:54:09;;;;;;;5.25;4.25;;;;;;;11.20;90.13;97011.22;1773905;81;21039;-72
2021/05/20 10:56:44;;;;;;;7.30;5.15;;;;;;;11.24;89.98;97012.41;1773847;81;21004;-72
2021/05/20 10:59:36;;;;;;;7.50;4.65;;;;;;;11.27;89.91;97013.56;1773766;81;21027;-71
2021/05/20 11:02:03;;;;;;;36.30;25.80;;;;;;;11.32;89.88;97020.84;1736992;81;20995;-73
2021/05/20 11:04:37;;;;;;;8.13;5.67;;;;;;;11.37;89.72;97021.95;1742145;81;21079;-75
2021/05/20 11:07:05;;;;;;;6.90;5.00;;;;;;;11.37;89.28;97028.10;1750947;81;21028;-73
2021/05/20 11:09:51;;;;;;;7.72;4.97;;;;;;;11.39;89.03;97028.91;1758174;81;21075;-75
2021/05/20 11:12:17;;;;;;;6.00;5.30;;;;;;;11.39;88.93;97034.21;1765921;81;21027;-74
2021/05/20 11:14:46;;;;;;;7.05;5.47;;;;;;;11.41;88.55;97033.66;1702827;83;21023;-74
2021/05/20 11:17:34;;;;;;;6.00;5.40;;;;;;;11.43;88.76;97032.27;1692646;81;21028;-76
2021/05/20 11:20:28;;;;;;;6.78;5.22;;;;;;;11.42;88.67;97034.05;1742329;81;21046;-76
2021/05/20 11:23:21;;;;;;;10.38;6.00;;;;;;;11.45;89.00;97033.03;1758271;81;21023;-75
2021/05/20 11:26:04;;;;;;;5.62;5.03;;;;;;;11.51;88.81;97034.54;1752302;81;21034;-76
2021/05/20 11:28:58;;;;;;;7.55;5.95;;;;;;;11.56;88.37;97039.16;1708569;84;21070;-76
2021/05/20 11:31:27;;;;;;;7.75;5.95;;;;;;;11.56;88.63;97040.02;1699783;84;21067;-76
2021/05/20 11:36:41;;;;;;;9.25;6.85;;;;;;;11.62;88.76;97034.86;1703918;81;21064;-77
2021/05/20 11:39:13;;;;;;;8.38;6.35;;;;;;;11.65;88.45;97043.14;1746838;81;21556;-77
2021/05/20 11:41:42;;;;;;;7.92;6.37;;;;;;;11.66;88.20;97041.73;1749810;81;21027;-75
2021/05/20 11:44:14;;;;;;;7.28;6.58;;;;;;;11.65;88.71;97044.47;1743142;81;21031;-74
2021/05/20 11:46:48;;;;;;;9.33;6.15;;;;;;;11.65;88.78;97045.34;1757063;81;20988;-74
2021/05/20 11:49:20;;;;;;;6.95;6.12;;;;;;;11.65;88.56;97051.09;1693762;84;21564;-74
2021/05/20 11:52:02;;;;;;;10.30;6.15;;;;;;;11.62;88.51;97047.67;1742120;81;21018;-74